sensor_id;sensor_type;location;lat;lon;timestamp;temperature;humidity
10231;DHT22;62604;49.432;8.680;2024-03-25T08:09:10;11.60;73.60
10231;DHT22;62604;49.432;8.680;2024-03-25T08:11:36;11.60;72.50
10231;DHT22;62604;49.432;8.680;2024-03-25T08:14:02;11.80;72.90
10231;DHT22;62604;49.432;8.680;2024-03-25T08:16:28;12.00;73.90
10231;DHT22;62604;49.432;8.680;2024-03-25T08:18:54;12.40;73.80
10231;DHT22;62604;49.432;8.680;2024-03-25T08:21:21;12.70;70.10
10231;DHT22;62604;49.432;8.680;2024-03-25T08:23:47;13.00;69.50
10231;DHT22;62604;49.432;8.680;2024-03-25T08:26:14;13.20;69.20
10231;DHT22;62604;49.432;8.680;2024-03-25T08:28:40;13.50;65.70
10231;DHT22;62604;49.432;8.680;2024-03-25T08:31:06;13.60;61.00
10231;DHT22;62604;49.432;8.680;2024-03-25T08:33:33;13.60;59.60
10231;DHT22;62604;49.432;8.680;2024-03-25T08:35:59;13.40;57.80
10231;DHT22;62604;49.432;8.680;2024-03-25T08:38:25;13.10;58.90
10231;DHT22;62604;49.432;8.680;2024-03-25T08:40:51;13.00;59.20
10231;DHT22;62604;49.432;8.680;2024-03-25T08:43:19;13.00;58.40
10231;DHT22;62604;49.432;8.680;2024-03-25T08:45:45;13.10;55.90
10231;DHT22;62604;49.432;8.680;2024-03-25T08:48:12;13.10;56.40
10231;DHT22;62604;49.432;8.680;2024-03-25T08:50:38;13.30;56.30
10231;DHT22;62604;49.432;8.680;2024-03-25T08:53:04;13.50;55.20
10231;DHT22;62604;49.432;8.680;2024-03-25T08:55:30;13.30;52.00
10231;DHT22;62604;49.432;8.680;2024-03-25T08:57:56;13.00;52.60
10231;DHT22;62604;49.432;8.680;2024-03-25T09:00:25;12.80;53.20
10231;DHT22;62604;49.432;8.680;2024-03-25T09:02:51;12.40;53.70
10231;DHT22;62604;49.432;8.680;2024-03-25T09:05:17;12.10;52.00
10231;DHT22;62604;49.432;8.680;2024-03-25T09:07:44;12.00;53.80
10231;DHT22;62604;49.432;8.680;2024-03-25T09:10:10;12.10;53.10
10231;DHT22;62604;49.432;8.680;2024-03-25T09:12:55;12.40;53.70
10231;DHT22;62604;49.432;8.680;2024-03-25T09:15:21;12.80;52.70
10231;DHT22;62604;49.432;8.680;2024-03-25T09:17:48;13.30;51.70
10231;DHT22;62604;49.432;8.680;2024-03-25T09:20:14;13.80;50.20
10231;DHT22;62604;49.432;8.680;2024-03-25T09:22:42;14.30;46.00
10231;DHT22;62604;49.432;8.680;2024-03-25T09:25:08;14.80;1.00
10231;DHT22;62604;49.432;8.680;2024-03-25T09:27:34;15.20;99.90
10231;DHT22;62604;49.432;8.680;2024-03-25T09:30:01;15.60;99.90
10231;DHT22;62604;49.432;8.680;2024-03-25T09:32:27;15.80;99.90
10231;DHT22;62604;49.432;8.680;2024-03-25T09:34:54;16.00;99.90
10231;DHT22;62604;49.432;8.680;2024-03-25T09:37:20;16.00;99.90
10231;DHT22;62604;49.432;8.680;2024-03-25T09:39:46;16.00;99.90
10231;DHT22;62604;49.432;8.680;2024-03-25T09:42:15;15.70;99.90
10231;DHT22;62604;49.432;8.680;2024-03-25T09:44:41;15.50;99.90
10231;DHT22;62604;49.432;8.680;2024-03-25T09:47:07;15.50;99.90
10231;DHT22;62604;49.432;8.680;2024-03-25T09:49:33;15.70;99.90
10231;DHT22;62604;49.432;8.680;2024-03-25T09:52:03;16.00;99.90
10231;DHT22;62604;49.432;8.680;2024-03-25T09:54:29;16.20;99.90
10231;DHT22;62604;49.432;8.680;2024-03-25T09:56:55;16.30;99.90
10231;DHT22;62604;49.432;8.680;2024-03-25T09:59:21;16.30;99.90
10231;DHT22;62604;49.432;8.680;2024-03-25T10:01:47;16.30;99.90
10231;DHT22;62604;49.432;8.680;2024-03-25T10:04:14;16.20;99.90
10231;DHT22;62604;49.432;8.680;2024-03-25T10:06:40;16.20;99.90
10231;DHT22;62604;49.432;8.680;2024-03-25T10:09:07;16.20;99.90
10231;DHT22;62604;49.432;8.680;2024-03-25T10:11:34;16.00;99.90
10231;DHT22;62604;49.432;8.680;2024-03-25T10:14:01;16.00;99.90
10231;DHT22;62604;49.432;8.680;2024-03-25T10:16:27;15.80;99.90
10231;DHT22;62604;49.432;8.680;2024-03-25T10:18:53;15.70;99.90
10231;DHT22;62604;49.432;8.680;2024-03-25T10:21:20;15.30;99.90
10231;DHT22;62604;49.432;8.680;2024-03-25T10:23:46;14.90;99.90
10231;DHT22;62604;49.432;8.680;2024-03-25T10:26:27;14.50;99.90
10231;DHT22;62604;49.432;8.680;2024-03-25T10:29:00;14.30;99.90
10231;DHT22;62604;49.432;8.680;2024-03-25T10:31:27;14.30;99.90
10231;DHT22;62604;49.432;8.680;2024-03-25T10:33:53;14.50;99.90
10231;DHT22;62604;49.432;8.680;2024-03-25T10:36:21;14.60;99.90
10231;DHT22;62604;49.432;8.680;2024-03-25T10:38:49;14.80;99.90
10231;DHT22;62604;49.432;8.680;2024-03-25T10:41:17;14.80;99.90
10231;DHT22;62604;49.432;8.680;2024-03-25T10:43:46;14.90;99.90
10231;DHT22;62604;49.432;8.680;2024-03-25T10:46:17;15.10;99.90
10231;DHT22;62604;49.432;8.680;2024-03-25T10:48:48;15.40;99.90
10231;DHT22;62604;49.432;8.680;2024-03-25T10:51:14;15.70;99.90
10231;DHT22;62604;49.432;8.680;2024-03-25T10:53:41;15.90;99.90
10231;DHT22;62604;49.432;8.680;2024-03-25T10:56:09;16.00;99.90
10231;DHT22;62604;49.432;8.680;2024-03-25T10:58:36;16.00;99.90
10231;DHT22;62604;49.432;8.680;2024-03-25T11:01:04;15.90;99.90
10231;DHT22;62604;49.432;8.680;2024-03-25T11:03:30;15.90;99.90
10231;DHT22;62604;49.432;8.680;2024-03-25T11:05:57;15.80;99.90
10231;DHT22;62604;49.432;8.680;2024-03-25T11:08:31;15.90;99.90
10231;DHT22;62604;49.432;8.680;2024-03-25T11:10:59;16.00;99.90
10231;DHT22;62604;49.432;8.680;2024-03-25T11:13:27;16.10;99.90
10231;DHT22;62604;49.432;8.680;2024-03-25T11:15:53;16.20;99.90
10231;DHT22;62604;49.432;8.680;2024-03-25T11:18:24;16.40;99.90
10231;DHT22;62604;49.432;8.680;2024-03-25T11:21:00;16.50;99.90
10231;DHT22;62604;49.432;8.680;2024-03-25T11:23:34;16.60;99.90
10231;DHT22;62604;49.432;8.680;2024-03-25T11:26:01;16.70;99.90
10231;DHT22;62604;49.432;8.680;2024-03-25T11:28:27;16.80;99.90
10231;DHT22;62604;49.432;8.680;2024-03-25T11:30:54;16.70;99.90
10231;DHT22;62604;49.432;8.680;2024-03-25T11:33:20;16.70;99.90
10231;DHT22;62604;49.432;8.680;2024-03-25T11:35:48;16.90;99.90
10231;DHT22;62604;49.432;8.680;2024-03-25T11:38:15;17.10;99.90
10231;DHT22;62604;49.432;8.680;2024-03-25T11:40:43;17.20;99.90
10231;DHT22;62604;49.432;8.680;2024-03-25T11:43:09;17.30;99.90
10231;DHT22;62604;49.432;8.680;2024-03-25T11:45:36;17.30;99.90
10231;DHT22;62604;49.432;8.680;2024-03-25T11:48:03;17.30;99.90
10231;DHT22;62604;49.432;8.680;2024-03-25T11:50:30;17.30;99.90
10231;DHT22;62604;49.432;8.680;2024-03-25T11:52:58;17.30;99.90
10231;DHT22;62604;49.432;8.680;2024-03-25T11:55:24;17.40;99.90
10231;DHT22;62604;49.432;8.680;2024-03-25T11:57:55;17.50;99.90
10231;DHT22;62604;49.432;8.680;2024-03-25T12:00:21;17.50;99.90
10231;DHT22;62604;49.432;8.680;2024-03-25T12:02:47;17.60;99.90
10231;DHT22;62604;49.432;8.680;2024-03-25T12:05:13;17.70;99.90
10231;DHT22;62604;49.432;8.680;2024-03-25T12:07:40;17.80;99.90
10231;DHT22;62604;49.432;8.680;2024-03-25T12:10:08;17.80;99.90
10231;DHT22;62604;49.432;8.680;2024-03-25T12:12:53;17.90;99.90
10231;DHT22;62604;49.432;8.680;2024-03-25T12:15:19;18.00;99.90
10231;DHT22;62604;49.432;8.680;2024-03-25T12:17:46;18.00;99.90
10231;DHT22;62604;49.432;8.680;2024-03-25T12:20:13;18.00;99.90
10231;DHT22;62604;49.432;8.680;2024-03-25T12:22:40;18.00;99.90
10231;DHT22;62604;49.432;8.680;2024-03-25T12:25:08;18.00;99.90
10231;DHT22;62604;49.432;8.680;2024-03-25T12:27:35;18.10;99.90
10231;DHT22;62604;49.432;8.680;2024-03-25T12:30:03;18.10;99.90
10231;DHT22;62604;49.432;8.680;2024-03-25T12:32:37;18.20;99.90
10231;DHT22;62604;49.432;8.680;2024-03-25T12:35:06;18.10;99.90
10231;DHT22;62604;49.432;8.680;2024-03-25T12:37:33;18.00;99.90
10231;DHT22;62604;49.432;8.680;2024-03-25T12:39:59;18.10;99.90
10231;DHT22;62604;49.432;8.680;2024-03-25T12:42:27;18.30;99.90
10231;DHT22;62604;49.432;8.680;2024-03-25T12:44:53;18.40;99.90
10231;DHT22;62604;49.432;8.680;2024-03-25T12:47:19;18.50;99.90
10231;DHT22;62604;49.432;8.680;2024-03-25T12:49:46;18.60;99.90
10231;DHT22;62604;49.432;8.680;2024-03-25T12:52:12;18.40;99.90
10231;DHT22;62604;49.432;8.680;2024-03-25T12:54:38;18.40;99.90
10231;DHT22;62604;49.432;8.680;2024-03-25T12:57:04;18.20;99.90
10231;DHT22;62604;49.432;8.680;2024-03-25T12:59:32;18.00;99.90
10231;DHT22;62604;49.432;8.680;2024-03-25T13:01:58;18.00;99.90
10231;DHT22;62604;49.432;8.680;2024-03-25T13:04:25;18.00;99.90
10231;DHT22;62604;49.432;8.680;2024-03-25T13:06:52;18.10;99.90
10231;DHT22;62604;49.432;8.680;2024-03-25T13:09:18;18.20;99.90
10231;DHT22;62604;49.432;8.680;2024-03-25T13:11:45;18.20;99.90
10231;DHT22;62604;49.432;8.680;2024-03-25T13:14:11;18.10;99.90
10231;DHT22;62604;49.432;8.680;2024-03-25T13:16:39;18.30;99.90
10231;DHT22;62604;49.432;8.680;2024-03-25T13:19:05;18.30;99.90
10231;DHT22;62604;49.432;8.680;2024-03-25T13:21:32;18.10;99.90
10231;DHT22;62604;49.432;8.680;2024-03-25T13:23:59;17.90;99.90
10231;DHT22;62604;49.432;8.680;2024-03-25T13:26:25;17.70;99.90
10231;DHT22;62604;49.432;8.680;2024-03-25T13:28:51;17.40;99.90
10231;DHT22;62604;49.432;8.680;2024-03-25T13:31:18;17.20;99.90
10231;DHT22;62604;49.432;8.680;2024-03-25T13:33:45;16.80;99.90
10231;DHT22;62604;49.432;8.680;2024-03-25T13:36:11;16.40;99.90
10231;DHT22;62604;49.432;8.680;2024-03-25T13:38:37;16.10;99.90
10231;DHT22;62604;49.432;8.680;2024-03-25T13:41:04;15.70;99.90
10231;DHT22;62604;49.432;8.680;2024-03-25T13:43:30;15.50;99.90
10231;DHT22;62604;49.432;8.680;2024-03-25T13:45:56;15.20;99.90
10231;DHT22;62604;49.432;8.680;2024-03-25T13:48:22;15.00;99.90
10231;DHT22;62604;49.432;8.680;2024-03-25T13:50:53;14.80;99.90
10231;DHT22;62604;49.432;8.680;2024-03-25T13:53:20;14.60;99.90
10231;DHT22;62604;49.432;8.680;2024-03-25T13:55:46;14.40;99.90
10231;DHT22;62604;49.432;8.680;2024-03-25T13:58:13;14.40;99.90
10231;DHT22;62604;49.432;8.680;2024-03-25T14:00:39;14.30;99.90
10231;DHT22;62604;49.432;8.680;2024-03-25T14:03:05;14.30;99.90
10231;DHT22;62604;49.432;8.680;2024-03-25T14:05:31;14.30;99.90
10231;DHT22;62604;49.432;8.680;2024-03-25T14:07:58;14.20;99.90
10231;DHT22;62604;49.432;8.680;2024-03-25T14:10:24;14.20;99.90
10231;DHT22;62604;49.432;8.680;2024-03-25T14:12:50;14.00;99.90
10231;DHT22;62604;49.432;8.680;2024-03-25T14:15:16;14.00;99.90
10231;DHT22;62604;49.432;8.680;2024-03-25T14:17:43;14.00;99.90
10231;DHT22;62604;49.432;8.680;2024-03-25T14:20:10;13.90;99.90
10231;DHT22;62604;49.432;8.680;2024-03-25T14:22:36;13.90;99.90
10231;DHT22;62604;49.432;8.680;2024-03-25T14:25:04;13.90;99.90
10231;DHT22;62604;49.432;8.680;2024-03-25T14:27:30;13.90;99.90
10231;DHT22;62604;49.432;8.680;2024-03-25T14:29:56;13.90;99.90
10231;DHT22;62604;49.432;8.680;2024-03-25T14:32:23;13.80;99.90
10231;DHT22;62604;49.432;8.680;2024-03-25T14:34:50;13.60;99.90
10231;DHT22;62604;49.432;8.680;2024-03-25T14:37:16;13.50;99.90
10231;DHT22;62604;49.432;8.680;2024-03-25T14:39:43;13.30;99.90
10231;DHT22;62604;49.432;8.680;2024-03-25T14:42:11;13.30;99.90
10231;DHT22;62604;49.432;8.680;2024-03-25T14:44:37;13.20;99.90
10231;DHT22;62604;49.432;8.680;2024-03-25T14:47:03;13.20;99.90
10231;DHT22;62604;49.432;8.680;2024-03-25T14:49:30;13.20;99.90
10231;DHT22;62604;49.432;8.680;2024-03-25T14:51:56;13.20;99.90
10231;DHT22;62604;49.432;8.680;2024-03-25T14:54:22;13.20;99.90
10231;DHT22;62604;49.432;8.680;2024-03-25T14:56:49;13.20;99.90
10231;DHT22;62604;49.432;8.680;2024-03-25T14:59:16;13.10;99.90
10231;DHT22;62604;49.432;8.680;2024-03-25T15:01:42;13.10;99.90
10231;DHT22;62604;49.432;8.680;2024-03-25T15:04:08;13.10;99.90
10231;DHT22;62604;49.432;8.680;2024-03-25T15:06:34;13.10;99.90
10231;DHT22;62604;49.432;8.680;2024-03-25T15:09:01;13.10;99.90
10231;DHT22;62604;49.432;8.680;2024-03-25T15:11:27;13.10;99.90
10231;DHT22;62604;49.432;8.680;2024-03-25T15:13:53;13.20;99.90
10231;DHT22;62604;49.432;8.680;2024-03-25T15:16:21;13.50;99.90
10231;DHT22;62604;49.432;8.680;2024-03-25T15:18:47;13.80;99.90
10231;DHT22;62604;49.432;8.680;2024-03-25T15:21:13;14.30;99.90
10231;DHT22;62604;49.432;8.680;2024-03-25T15:23:39;14.70;99.90
10231;DHT22;62604;49.432;8.680;2024-03-25T15:26:05;15.10;99.90
10231;DHT22;62604;49.432;8.680;2024-03-25T15:28:32;15.30;99.90
10231;DHT22;62604;49.432;8.680;2024-03-25T15:30:59;15.30;99.90
10231;DHT22;62604;49.432;8.680;2024-03-25T15:33:26;15.50;99.90
10231;DHT22;62604;49.432;8.680;2024-03-25T15:35:52;15.70;99.90
10231;DHT22;62604;49.432;8.680;2024-03-25T15:38:21;15.50;99.90
10231;DHT22;62604;49.432;8.680;2024-03-25T15:40:50;15.50;99.90
10231;DHT22;62604;49.432;8.680;2024-03-25T15:43:17;15.20;99.90
10231;DHT22;62604;49.432;8.680;2024-03-25T15:45:53;15.00;99.90
10231;DHT22;62604;49.432;8.680;2024-03-25T15:48:20;15.00;99.90
10231;DHT22;62604;49.432;8.680;2024-03-25T15:50:51;14.80;99.90
10231;DHT22;62604;49.432;8.680;2024-03-25T15:53:18;14.60;99.90
10231;DHT22;62604;49.432;8.680;2024-03-25T15:55:44;14.60;99.90
10231;DHT22;62604;49.432;8.680;2024-03-25T15:58:10;14.50;99.90
10231;DHT22;62604;49.432;8.680;2024-03-25T16:00:37;14.50;99.90
10231;DHT22;62604;49.432;8.680;2024-03-25T16:03:03;14.50;99.90
10231;DHT22;62604;49.432;8.680;2024-03-25T16:05:30;14.40;99.90
10231;DHT22;62604;49.432;8.680;2024-03-25T16:08:01;14.30;99.90
10231;DHT22;62604;49.432;8.680;2024-03-25T16:10:30;14.20;99.90
10231;DHT22;62604;49.432;8.680;2024-03-25T16:12:58;14.30;99.90
10231;DHT22;62604;49.432;8.680;2024-03-25T16:15:29;14.50;99.90
10231;DHT22;62604;49.432;8.680;2024-03-25T16:17:55;14.60;99.90
10231;DHT22;62604;49.432;8.680;2024-03-25T16:20:21;14.60;99.90
10231;DHT22;62604;49.432;8.680;2024-03-25T16:22:47;14.50;99.90
10231;DHT22;62604;49.432;8.680;2024-03-25T16:25:21;14.60;99.90
10231;DHT22;62604;49.432;8.680;2024-03-25T16:27:47;14.70;99.90
10231;DHT22;62604;49.432;8.680;2024-03-25T16:30:13;14.90;99.90
10231;DHT22;62604;49.432;8.680;2024-03-25T16:32:39;15.00;99.90
10231;DHT22;62604;49.432;8.680;2024-03-25T16:35:06;15.20;99.90
10231;DHT22;62604;49.432;8.680;2024-03-25T16:37:32;15.20;99.90
10231;DHT22;62604;49.432;8.680;2024-03-25T16:39:58;15.20;99.90
10231;DHT22;62604;49.432;8.680;2024-03-25T16:42:25;15.10;99.90
10231;DHT22;62604;49.432;8.680;2024-03-25T16:44:51;14.80;99.90
10231;DHT22;62604;49.432;8.680;2024-03-25T16:47:17;14.60;99.90
10231;DHT22;62604;49.432;8.680;2024-03-25T16:49:43;14.30;99.90
10231;DHT22;62604;49.432;8.680;2024-03-25T16:52:10;14.10;99.90
10231;DHT22;62604;49.432;8.680;2024-03-25T16:54:36;13.90;99.90
10231;DHT22;62604;49.432;8.680;2024-03-25T16:57:02;13.70;99.90
10231;DHT22;62604;49.432;8.680;2024-03-25T16:59:29;13.50;99.90
10231;DHT22;62604;49.432;8.680;2024-03-25T17:01:57;13.40;99.90
10231;DHT22;62604;49.432;8.680;2024-03-25T17:04:23;13.30;99.90
10231;DHT22;62604;49.432;8.680;2024-03-25T17:06:49;13.10;99.90
10231;DHT22;62604;49.432;8.680;2024-03-25T17:09:15;13.00;99.90
10231;DHT22;62604;49.432;8.680;2024-03-25T17:11:41;12.90;99.90
10231;DHT22;62604;49.432;8.680;2024-03-25T17:14:08;12.80;99.90
10231;DHT22;62604;49.432;8.680;2024-03-25T17:16:35;12.70;99.90
10231;DHT22;62604;49.432;8.680;2024-03-25T17:19:01;12.70;99.90
10231;DHT22;62604;49.432;8.680;2024-03-25T17:21:28;12.70;99.90
10231;DHT22;62604;49.432;8.680;2024-03-25T17:23:54;12.70;99.90
10231;DHT22;62604;49.432;8.680;2024-03-25T17:26:21;12.80;99.90
10231;DHT22;62604;49.432;8.680;2024-03-25T17:28:47;12.80;99.90
10231;DHT22;62604;49.432;8.680;2024-03-25T17:31:13;12.70;99.90
10231;DHT22;62604;49.432;8.680;2024-03-25T17:33:42;12.60;99.90
10231;DHT22;62604;49.432;8.680;2024-03-25T17:36:08;12.60;99.90
10231;DHT22;62604;49.432;8.680;2024-03-25T17:38:35;12.50;99.90
10231;DHT22;62604;49.432;8.680;2024-03-25T17:41:01;12.40;99.90
10231;DHT22;62604;49.432;8.680;2024-03-25T17:43:28;12.30;99.90
10231;DHT22;62604;49.432;8.680;2024-03-25T17:45:54;12.20;99.90
10231;DHT22;62604;49.432;8.680;2024-03-25T17:48:20;12.10;99.90
10231;DHT22;62604;49.432;8.680;2024-03-25T17:50:54;12.10;99.90
10231;DHT22;62604;49.432;8.680;2024-03-25T17:53:20;12.00;99.90
10231;DHT22;62604;49.432;8.680;2024-03-25T17:55:46;12.00;99.90
10231;DHT22;62604;49.432;8.680;2024-03-25T17:58:12;11.90;99.90
10231;DHT22;62604;49.432;8.680;2024-03-25T18:00:39;11.80;99.90
10231;DHT22;62604;49.432;8.680;2024-03-25T18:03:09;11.80;99.90
10231;DHT22;62604;49.432;8.680;2024-03-25T18:05:35;11.80;99.90
10231;DHT22;62604;49.432;8.680;2024-03-25T18:08:03;11.70;99.90
10231;DHT22;62604;49.432;8.680;2024-03-25T18:10:29;11.70;99.90
10231;DHT22;62604;49.432;8.680;2024-03-25T18:12:56;11.60;99.90
10231;DHT22;62604;49.432;8.680;2024-03-25T18:15:22;11.60;99.90
10231;DHT22;62604;49.432;8.680;2024-03-25T18:17:48;11.50;99.90
10231;DHT22;62604;49.432;8.680;2024-03-25T18:20:14;11.40;99.90
10231;DHT22;62604;49.432;8.680;2024-03-25T18:22:40;11.40;99.90
10231;DHT22;62604;49.432;8.680;2024-03-25T18:25:08;11.30;99.90
10231;DHT22;62604;49.432;8.680;2024-03-25T18:27:34;11.30;99.90
10231;DHT22;62604;49.432;8.680;2024-03-25T18:30:00;11.30;99.90
10231;DHT22;62604;49.432;8.680;2024-03-25T18:32:26;11.20;99.90
10231;DHT22;62604;49.432;8.680;2024-03-25T18:34:53;11.20;99.90
10231;DHT22;62604;49.432;8.680;2024-03-25T18:37:19;11.20;99.90
10231;DHT22;62604;49.432;8.680;2024-03-25T18:39:46;11.20;99.90
10231;DHT22;62604;49.432;8.680;2024-03-25T18:42:14;11.10;99.90
10231;DHT22;62604;49.432;8.680;2024-03-25T18:44:40;11.10;99.90
10231;DHT22;62604;49.432;8.680;2024-03-25T18:47:06;11.00;99.90
10231;DHT22;62604;49.432;8.680;2024-03-25T18:49:32;10.90;99.90
10231;DHT22;62604;49.432;8.680;2024-03-25T18:51:58;10.80;99.90
10231;DHT22;62604;49.432;8.680;2024-03-25T18:54:24;10.80;99.90
10231;DHT22;62604;49.432;8.680;2024-03-25T18:56:50;10.70;99.90
10231;DHT22;62604;49.432;8.680;2024-03-25T18:59:17;10.70;99.90
10231;DHT22;62604;49.432;8.680;2024-03-25T19:01:43;10.70;99.90
10231;DHT22;62604;49.432;8.680;2024-03-25T19:04:09;10.70;99.90
10231;DHT22;62604;49.432;8.680;2024-03-25T19:06:36;10.60;99.90
10231;DHT22;62604;49.432;8.680;2024-03-25T19:09:02;10.60;99.90
10231;DHT22;62604;49.432;8.680;2024-03-25T19:11:28;10.60;99.90
10231;DHT22;62604;49.432;8.680;2024-03-25T19:13:54;10.60;99.90
10231;DHT22;62604;49.432;8.680;2024-03-25T19:16:22;10.50;99.90
10231;DHT22;62604;49.432;8.680;2024-03-25T19:18:48;10.50;99.90
10231;DHT22;62604;49.432;8.680;2024-03-25T19:21:14;10.50;99.90
10231;DHT22;62604;49.432;8.680;2024-03-25T19:23:40;10.50;99.90
10231;DHT22;62604;49.432;8.680;2024-03-25T19:26:06;10.50;99.90
10231;DHT22;62604;49.432;8.680;2024-03-25T19:28:32;10.40;99.90
10231;DHT22;62604;49.432;8.680;2024-03-25T19:30:58;10.40;99.90
10231;DHT22;62604;49.432;8.680;2024-03-25T19:33:26;10.40;99.90
10231;DHT22;62604;49.432;8.680;2024-03-25T19:35:52;10.40;99.90
10231;DHT22;62604;49.432;8.680;2024-03-25T19:38:18;10.40;99.90
10231;DHT22;62604;49.432;8.680;2024-03-25T19:40:44;10.40;99.90
10231;DHT22;62604;49.432;8.680;2024-03-25T19:43:10;10.40;99.90
10231;DHT22;62604;49.432;8.680;2024-03-25T19:45:36;10.40;99.90
10231;DHT22;62604;49.432;8.680;2024-03-25T19:48:03;10.40;99.90
10231;DHT22;62604;49.432;8.680;2024-03-25T19:50:30;10.40;99.90
10231;DHT22;62604;49.432;8.680;2024-03-25T19:52:56;10.40;99.90
10231;DHT22;62604;49.432;8.680;2024-03-25T19:55:22;10.40;99.90
10231;DHT22;62604;49.432;8.680;2024-03-25T19:57:48;10.40;99.90
10231;DHT22;62604;49.432;8.680;2024-03-25T20:00:15;10.40;99.90
10231;DHT22;62604;49.432;8.680;2024-03-25T20:02:42;10.30;99.90
10231;DHT22;62604;49.432;8.680;2024-03-25T20:05:08;10.30;99.90
10231;DHT22;62604;49.432;8.680;2024-03-25T20:07:35;10.30;99.90
10231;DHT22;62604;49.432;8.680;2024-03-25T20:10:02;10.30;99.90
10231;DHT22;62604;49.432;8.680;2024-03-25T20:12:28;10.30;99.90
10231;DHT22;62604;49.432;8.680;2024-03-25T20:14:54;10.30;99.90
10231;DHT22;62604;49.432;8.680;2024-03-25T20:17:20;10.30;99.90
10231;DHT22;62604;49.432;8.680;2024-03-25T20:19:46;10.30;99.90
10231;DHT22;62604;49.432;8.680;2024-03-25T20:22:12;10.30;99.90
10231;DHT22;62604;49.432;8.680;2024-03-25T20:24:39;10.30;99.90
10231;DHT22;62604;49.432;8.680;2024-03-25T20:27:06;10.30;99.90
10231;DHT22;62604;49.432;8.680;2024-03-25T20:29:32;10.30;99.90
10231;DHT22;62604;49.432;8.680;2024-03-25T20:31:58;10.30;99.90
10231;DHT22;62604;49.432;8.680;2024-03-25T20:34:24;10.20;99.90
10231;DHT22;62604;49.432;8.680;2024-03-25T20:36:50;10.20;99.90
10231;DHT22;62604;49.432;8.680;2024-03-25T20:39:16;10.20;99.90
10231;DHT22;62604;49.432;8.680;2024-03-25T20:41:44;10.20;99.90
10231;DHT22;62604;49.432;8.680;2024-03-25T20:44:10;10.20;99.90
10231;DHT22;62604;49.432;8.680;2024-03-25T20:46:36;10.20;99.90
10231;DHT22;62604;49.432;8.680;2024-03-25T20:49:02;10.20;99.90
10231;DHT22;62604;49.432;8.680;2024-03-25T20:51:29;10.20;99.90
10231;DHT22;62604;49.432;8.680;2024-03-25T20:53:55;10.20;99.90
10231;DHT22;62604;49.432;8.680;2024-03-25T20:56:21;10.20;99.90
10231;DHT22;62604;49.432;8.680;2024-03-25T20:58:48;10.10;99.90
10231;DHT22;62604;49.432;8.680;2024-03-25T21:01:14;10.20;99.90
10231;DHT22;62604;49.432;8.680;2024-03-25T21:03:41;10.20;99.90
10231;DHT22;62604;49.432;8.680;2024-03-25T21:06:07;10.10;99.90
10231;DHT22;62604;49.432;8.680;2024-03-25T21:08:33;10.10;99.90
10231;DHT22;62604;49.432;8.680;2024-03-25T21:10:59;10.00;99.90
10231;DHT22;62604;49.432;8.680;2024-03-25T21:13:25;10.00;99.90
10231;DHT22;62604;49.432;8.680;2024-03-25T21:15:53;10.00;99.90
10231;DHT22;62604;49.432;8.680;2024-03-25T21:18:19;10.00;99.90
10231;DHT22;62604;49.432;8.680;2024-03-25T21:20:45;10.00;99.90
10231;DHT22;62604;49.432;8.680;2024-03-25T21:23:11;10.00;99.90
10231;DHT22;62604;49.432;8.680;2024-03-25T21:25:37;10.00;99.90
10231;DHT22;62604;49.432;8.680;2024-03-25T21:28:03;10.00;99.90
10231;DHT22;62604;49.432;8.680;2024-03-25T21:30:30;10.00;99.90
10231;DHT22;62604;49.432;8.680;2024-03-25T21:32:57;10.00;99.90
10231;DHT22;62604;49.432;8.680;2024-03-25T21:35:24;10.00;99.90
10231;DHT22;62604;49.432;8.680;2024-03-25T21:37:50;10.00;99.90
10231;DHT22;62604;49.432;8.680;2024-03-25T21:40:16;10.00;99.90
10231;DHT22;62604;49.432;8.680;2024-03-25T21:42:42;10.00;99.90
10231;DHT22;62604;49.432;8.680;2024-03-25T21:45:08;9.90;99.90
10231;DHT22;62604;49.432;8.680;2024-03-25T21:47:35;9.90;99.90
10231;DHT22;62604;49.432;8.680;2024-03-25T21:50:02;9.90;99.90
10231;DHT22;62604;49.432;8.680;2024-03-25T21:52:29;9.90;99.90
10231;DHT22;62604;49.432;8.680;2024-03-25T21:54:55;9.90;99.90
10231;DHT22;62604;49.432;8.680;2024-03-25T21:57:21;9.80;99.90
10231;DHT22;62604;49.432;8.680;2024-03-25T21:59:47;9.80;99.90
10231;DHT22;62604;49.432;8.680;2024-03-25T22:02:13;9.80;99.90
10231;DHT22;62604;49.432;8.680;2024-03-25T22:04:39;9.80;99.90
10231;DHT22;62604;49.432;8.680;2024-03-25T22:07:06;9.70;99.90
10231;DHT22;62604;49.432;8.680;2024-03-25T22:09:32;9.70;99.90
10231;DHT22;62604;49.432;8.680;2024-03-25T22:11:59;9.70;99.90
10231;DHT22;62604;49.432;8.680;2024-03-25T22:14:25;9.60;99.90
10231;DHT22;62604;49.432;8.680;2024-03-25T22:16:51;9.70;99.90
10231;DHT22;62604;49.432;8.680;2024-03-25T22:19:17;9.70;99.90
10231;DHT22;62604;49.432;8.680;2024-03-25T22:21:43;9.60;99.90
10231;DHT22;62604;49.432;8.680;2024-03-25T22:24:10;9.60;99.90
10231;DHT22;62604;49.432;8.680;2024-03-25T22:26:36;9.60;99.90
10231;DHT22;62604;49.432;8.680;2024-03-25T22:29:02;9.60;99.90
10231;DHT22;62604;49.432;8.680;2024-03-25T22:31:29;9.50;99.90
10231;DHT22;62604;49.432;8.680;2024-03-25T22:33:55;9.50;99.90
10231;DHT22;62604;49.432;8.680;2024-03-25T22:36:21;9.50;99.90
10231;DHT22;62604;49.432;8.680;2024-03-25T22:38:47;9.50;99.90
10231;DHT22;62604;49.432;8.680;2024-03-25T22:41:15;9.40;99.90
10231;DHT22;62604;49.432;8.680;2024-03-25T22:43:41;9.40;99.90
10231;DHT22;62604;49.432;8.680;2024-03-25T22:46:07;9.40;99.90
10231;DHT22;62604;49.432;8.680;2024-03-25T22:48:33;9.40;99.90
10231;DHT22;62604;49.432;8.680;2024-03-25T22:51:00;9.30;99.90
10231;DHT22;62604;49.432;8.680;2024-03-25T22:53:27;9.30;99.90
10231;DHT22;62604;49.432;8.680;2024-03-25T22:55:57;9.30;99.90
10231;DHT22;62604;49.432;8.680;2024-03-25T22:58:25;9.30;99.90
10231;DHT22;62604;49.432;8.680;2024-03-25T23:00:51;9.30;99.90
10231;DHT22;62604;49.432;8.680;2024-03-25T23:03:17;9.20;99.90
10231;DHT22;62604;49.432;8.680;2024-03-25T23:05:44;9.20;99.90
10231;DHT22;62604;49.432;8.680;2024-03-25T23:08:10;9.20;99.90
10231;DHT22;62604;49.432;8.680;2024-03-25T23:10:36;9.20;99.90
10231;DHT22;62604;49.432;8.680;2024-03-25T23:13:02;9.20;99.90
10231;DHT22;62604;49.432;8.680;2024-03-25T23:15:30;9.10;99.90
10231;DHT22;62604;49.432;8.680;2024-03-25T23:17:56;9.10;99.90
10231;DHT22;62604;49.432;8.680;2024-03-25T23:20:22;9.00;99.90
10231;DHT22;62604;49.432;8.680;2024-03-25T23:22:48;9.00;99.90
10231;DHT22;62604;49.432;8.680;2024-03-25T23:25:14;9.00;99.90
10231;DHT22;62604;49.432;8.680;2024-03-25T23:27:40;9.00;99.90
10231;DHT22;62604;49.432;8.680;2024-03-25T23:30:07;8.90;99.90
10231;DHT22;62604;49.432;8.680;2024-03-25T23:32:35;8.90;99.90
10231;DHT22;62604;49.432;8.680;2024-03-25T23:35:01;8.90;99.90
10231;DHT22;62604;49.432;8.680;2024-03-25T23:37:27;8.90;99.90